Time;durP1;ratioP1;P1;durP2;ratioP2;P2;SDS_P1;SDS_P2;PMS_P1;PMS_P2;Temp;Humidity;BMP_temperature;BMP_pressure;BME280_temperature;BME280_humidity;BME280_pressure;Samples;Min_cycle;Max_cycle;Signal;HPM_P1;HPM_P2
2021/06/14 00:02:09;;;;;;;;;;;;;;;20.21;46.64;102134.25;5004092;28;98936;-90
2021/06/14 00:07:19;;;;;;;;;;;;;;;19.90;47.32;102134.97;5004076;28;96609;-90
2021/06/14 00:12:29;;;;;;;;;;;;;;;19.72;47.98;102135.94;5000441;28;98892;-89
2021/06/14 00:14:56;;;;;;;;;;;;;;;19.89;47.94;102131.44;4998470;28;99764;-89
2021/06/14 00:17:30;;;;;;;;;;;;;;;19.59;47.79;102129.47;5012385;28;96614;-89
2021/06/14 00:19:58;;;;;;;;;;;;;;;19.41;48.45;102131.25;4983216;28;95977;-88
2021/06/14 00:22:32;;;;;;;;;;;;;;;19.27;49.33;102129.28;5008696;28;98877;-90
2021/06/14 00:33:19;;;;;;;;;;;;;;;19.19;50.29;102120.75;5011511;28;96779;-88
2021/06/14 00:35:47;;;;;;;;;;;;;;;18.86;51.11;102111.69;5011090;28;100107;-89
2021/06/14 00:38:20;;;;;;;;;;;;;;;19.15;50.10;102121.84;4976309;28;95860;-90
2021/06/14 00:40:49;;;;;;;;;;;;;;;19.24;49.73;102110.66;4976680;28;95981;-89
2021/06/14 00:46:01;;;;;;;;;;;;;;;18.84;50.58;102110.91;4984407;28;98881;-87
2021/06/14 00:48:27;;;;;;;;;;;;;;;19.01;50.94;102117.16;5011591;28;96526;-90
2021/06/14 00:50:57;;;;;;;;;;;;;;;18.67;52.10;102112.56;4998406;28;96001;-88
2021/06/14 00:56:07;;;;;;;;;;;;;;;18.87;51.31;102113.41;4996651;28;98762;-89
2021/06/14 01:01:21;;;;;;;;;;;;;;;18.69;51.52;102116.06;4995795;28;96106;-89
2021/06/14 01:03:48;;;;;;;;;;;;;;;18.95;50.91;102116.59;4991398;28;99241;-87
2021/06/14 01:06:18;;;;;;;;;;;;;;;18.88;51.22;102115.16;4992853;28;99084;-88
2021/06/14 01:08:49;;;;;;;;;;;;;;;18.85;51.26;102109.94;5005100;28;95961;-90
2021/06/14 01:11:20;;;;;;;;;;;;;;;18.81;51.55;102111.91;4980337;28;96022;-86
2021/06/14 01:13:54;;;;;;;;;;;;;;;18.72;51.53;102115.00;4999124;28;96913;-88
2021/06/14 01:19:12;;;;;;;;;;;;;;;18.52;52.57;102107.91;5003953;28;95954;-86
2021/06/14 01:21:41;;;;;;;;;;;;;;;18.61;52.23;102102.16;5298570;22;99296;-89
2021/06/14 01:33:07;;;;;;;;;;;;;;;18.33;52.91;102091.84;5012913;28;96012;-89
2021/06/14 01:38:25;;;;;;;;;;;;;;;18.86;51.34;102095.59;5000747;28;98630;-90
2021/06/14 01:40:55;;;;;;;;;;;;;;;18.90;51.10;102086.50;5016677;28;96750;-90
2021/06/14 01:43:23;;;;;;;;;;;;;;;18.79;51.31;102084.31;5022705;28;96811;-90
2021/06/14 01:45:55;;;;;;;;;;;;;;;18.68;51.95;102092.88;5011486;28;100261;-90
2021/06/14 01:48:24;;;;;;;;;;;;;;;18.66;52.04;102084.06;5016007;28;100141;-90
2021/06/14 01:51:00;;;;;;;;;;;;;;;18.56;52.13;102080.09;4999627;28;95905;-90
2021/06/14 01:53:30;;;;;;;;;;;;;;;18.45;52.24;102079.69;4998913;28;96095;-89
2021/06/14 01:55:58;;;;;;;;;;;;;;;18.40;52.34;102075.50;5024323;28;99872;-89
2021/06/14 02:09:25;;;;;;;;;;;;;;;18.34;52.88;102076.66;5012450;28;99437;-88
2021/06/14 02:14:39;;;;;;;;;;;;;;;18.61;51.97;102064.69;5021491;28;98410;-90
2021/06/14 02:17:24;;;;;;;;;;;;;;;18.81;51.56;102077.09;5011101;28;100647;-91
2021/06/14 02:20:06;;;;;;;;;;;;;;;18.70;51.69;102076.75;4991112;28;100095;-91
2021/06/14 02:22:47;;;;;;;;;;;;;;;18.80;51.84;102075.34;5015870;28;96586;-91
2021/06/14 02:33:28;;;;;;;;;;;;;;;18.90;51.41;102068.63;5028121;27;95974;-90
2021/06/14 02:35:59;;;;;;;;;;;;;;;18.54;52.51;102073.03;4995927;28;96788;-90
2021/06/14 02:38:26;;;;;;;;;;;;;;;18.43;53.11;102070.88;5018760;28;99928;-89
2021/06/14 02:41:08;;;;;;;;;;;;;;;18.23;53.30;102066.47;5021928;28;98707;-88
2021/06/14 02:43:51;;;;;;;;;;;;;;;18.64;52.01;102066.34;5006970;28;96628;-89
2021/06/14 02:49:13;;;;;;;;;;;;;;;18.25;53.82;102061.88;5010750;28;98943;-90
2021/06/14 03:02:37;;;;;;;;;;;;;;;18.52;52.94;102042.78;5013673;28;99197;-90
2021/06/14 03:07:46;;;;;;;;;;;;;;;18.25;53.57;102051.19;5015261;28;96690;-90
2021/06/14 03:12:55;;;;;;;;;;;;;;;18.32;53.94;102057.97;5018901;28;99374;-90
2021/06/14 03:15:31;;;;;;;;;;;;;;;18.15;54.68;102059.72;5023423;27;96521;-89
2021/06/14 03:18:19;;;;;;;;;;;;;;;18.27;54.56;102049.31;5003875;28;96790;-90
2021/06/14 03:20:51;;;;;;;;;;;;;;;18.28;54.30;102055.53;4995202;28;98472;-90
2021/06/14 03:29:36;;;;;;;;;;;;;;;18.08;55.15;102044.88;5077511;27;96540;-90
2021/06/14 03:32:04;;;;;;;;;;;;;;;17.91;55.33;102034.97;5082741;27;100379;-90
2021/06/14 03:34:33;;;;;;;;;;;;;;;18.20;54.35;102041.63;5100768;27;99109;-88
2021/06/14 03:39:44;;;;;;;;;;;;;;;18.52;53.52;102043.66;5094906;27;96480;-90
2021/06/14 03:45:07;;;;;;;;;;;;;;;18.97;52.63;102035.19;5089430;27;96241;-92
2021/06/14 03:50:15;;;;;;;;;;;;;;;19.06;52.42;102044.59;5105541;27;96374;-91
2021/06/14 03:52:47;;;;;;;;;;;;;;;19.30;51.63;102037.09;5084663;27;97916;-91
2021/06/14 03:57:56;;;;;;;;;;;;;;;19.19;51.99;102044.84;5082748;27;96774;-89
2021/06/14 04:00:41;;;;;;;;;;;;;;;19.45;51.40;102045.25;5081541;27;96763;-89
2021/06/14 04:03:27;;;;;;;;;;;;;;;19.52;51.08;102045.81;5075939;27;98835;-90
2021/06/14 04:11:31;;;;;;;;;;;;;;;19.62;50.51;102044.41;5087408;27;96652;-90
2021/06/14 04:13:58;;;;;;;;;;;;;;;20.05;49.28;102045.63;5091364;27;99748;-82
2021/06/14 04:19:05;;;;;;;;;;;;;;;20.41;47.96;102039.22;5078225;27;96188;-90
2021/06/14 04:21:34;;;;;;;;;;;;;;;20.58;47.40;102039.13;5100897;27;96567;-90
2021/06/14 04:24:09;;;;;;;;;;;;;;;20.54;47.25;102042.97;5085418;27;98576;-89
2021/06/14 04:32:00;;;;;;;;;;;;;;;20.90;46.30;102037.28;5097671;27;96101;-89
2021/06/14 04:34:29;;;;;;;;;;;;;;;20.72;46.43;102028.47;5090170;27;98327;-89
2021/06/14 04:39:42;;;;;;;;;;;;;;;20.84;45.63;102027.75;5077970;27;96594;-91
2021/06/14 04:42:12;;;;;;;;;;;;;;;20.95;44.91;102024.44;5074875;27;96555;-91
2021/06/14 04:44:45;;;;;;;;;;;;;;;21.17;44.71;102018.69;5092494;27;96935;-91
2021/06/14 04:47:17;;;;;;;;;;;;;;;21.19;44.54;102017.66;5096921;27;97463;-88
2021/06/14 04:52:34;;;;;;;;;;;;;;;21.73;43.17;102024.16;5059500;27;96810;-90
2021/06/14 04:55:05;;;;;;;;;;;;;;;21.74;42.65;102022.34;5062788;27;99984;-90
2021/06/14 04:57:43;;;;;;;;;;;;;;;21.48;43.06;102023.94;5070236;27;99827;-90
2021/06/14 05:00:11;;;;;;;;;;;;;;;21.59;42.77;102026.88;5074572;27;96788;-90
2021/06/14 05:02:39;;;;;;;;;;;;;;;22.39;41.04;102018.19;5078149;27;96854;-90
2021/06/14 05:05:11;;;;;;;;;;;;;;;22.26;40.72;102028.03;5070419;27;100612;-90
2021/06/14 05:07:53;;;;;;;;;;;;;;;22.18;41.19;102025.84;5078584;27;98830;-90
2021/06/14 05:10:21;;;;;;;;;;;;;;;22.43;40.17;102032.34;5065650;27;96720;-87
2021/06/14 05:12:49;;;;;;;;;;;;;;;22.45;40.35;102038.50;5060410;27;96831;-90
2021/06/14 05:15:17;;;;;;;;;;;;;;;22.43;40.58;102038.59;5064787;27;99355;-90
2021/06/14 05:17:45;;;;;;;;;;;;;;;22.67;39.68;102023.50;5068860;27;98550;-90
2021/06/14 05:20:12;;;;;;;;;;;;;;;22.67;39.87;102023.50;5067506;27;96602;-87
2021/06/14 05:22:45;;;;;;;;;;;;;;;22.91;39.26;102028.25;5072655;27;96898;-88
2021/06/14 05:25:11;;;;;;;;;;;;;;;23.08;38.89;102033.38;5068412;27;100625;-87
2021/06/14 05:27:42;;;;;;;;;;;;;;;23.05;38.72;102033.56;5071404;27;99398;-88
2021/06/14 05:32:54;;;;;;;;;;;;;;;23.43;38.28;102029.13;5086906;27;96748;-88
2021/06/14 05:35:35;;;;;;;;;;;;;;;23.19;38.98;102035.34;5057272;27;99302;-89
2021/06/14 05:46:36;;;;;;;;;;;;;;;23.59;36.90;102045.16;5072976;27;99070;-90
2021/06/14 05:49:18;;;;;;;;;;;;;;;23.75;36.44;102053.91;5071916;27;99222;-88
2021/06/14 05:51:49;;;;;;;;;;;;;;;23.33;36.87;102043.34;5071268;27;96617;-89
2021/06/14 06:02:26;;;;;;;;;;;;;;;23.64;36.01;102047.53;5057933;27;96718;-86
2021/06/14 06:07:43;;;;;;;;;;;;;;;23.92;36.10;102058.09;5063914;27;98837;-84
2021/06/14 06:15:58;;;;;;;;;;;;;;;24.32;34.99;102052.59;5065646;27;97286;-89
2021/06/14 06:18:25;;;;;;;;;;;;;;;24.23;35.08;102056.81;5053679;27;97632;-90
2021/06/14 06:20:56;;;;;;;;;;;;;;;24.53;34.68;102051.03;5059517;27;101561;-82
2021/06/14 06:23:23;;;;;;;;;;;;;;;24.66;34.66;102054.53;5058398;27;98818;-84
2021/06/14 06:25:50;;;;;;;;;;;;;;;24.58;34.57;102051.53;5065494;27;96724;-88
2021/06/14 06:28:18;;;;;;;;;;;;;;;24.51;34.65;102044.84;5071827;27;96761;-89
2021/06/14 06:30:47;;;;;;;;;;;;;;;24.52;35.23;102052.84;5064514;27;98594;-87
2021/06/14 06:33:18;;;;;;;;;;;;;;;24.72;34.69;102045.97;5067118;27;96883;-89
2021/06/14 06:35:46;;;;;;;;;;;;;;;24.78;34.64;102045.50;5093832;27;96079;-88
2021/06/14 06:38:13;;;;;;;;;;;;;;;25.40;33.62;102029.91;5063344;27;99101;-87
2021/06/14 06:40:55;;;;;;;;;;;;;;;26.44;31.95;102043.34;5064631;27;99027;-85
2021/06/14 06:43:22;;;;;;;;;;;;;;;26.34;31.50;102034.25;5075239;27;96627;-86
2021/06/14 06:48:27;;;;;;;;;;;;;;;27.52;30.31;102032.38;5072237;22;96478;-88
2021/06/14 06:50:57;;;;;;;;;;;;;;;27.14;30.37;102032.94;5036366;28;99603;-88
2021/06/14 06:53:25;;;;;;;;;;;;;;;26.29;31.87;102029.19;5035296;28;97025;-87
2021/06/14 06:55:55;;;;;;;;;;;;;;;25.39;33.70;102030.06;5033109;28;97113;-88
2021/06/14 06:58:21;;;;;;;;;;;;;;;25.95;32.31;102032.88;5034371;28;98203;-86
2021/06/14 07:00:49;;;;;;;;;;;;;;;26.04;32.33;102024.03;5036770;28;99272;-85
2021/06/14 07:06:10;;;;;;;;;;;;;;;25.84;32.44;102022.03;5021974;28;96712;-88
2021/06/14 07:08:38;;;;;;;;;;;;;;;25.06;33.56;102021.84;5029339;28;97915;-88
2021/06/14 07:13:57;;;;;;;;;;;;;;;25.74;32.56;102011.06;5034647;28;96417;-89
2021/06/14 07:16:26;;;;;;;;;;;;;;;25.36;33.00;102005.94;5034628;28;96691;-89
2021/06/14 07:19:00;;;;;;;;;;;;;;;25.69;32.61;102010.59;5036878;28;96717;-88
2021/06/14 07:21:31;;;;;;;;;;;;;;;25.62;32.52;102004.78;5036452;28;99696;-88
2021/06/14 07:23:59;;;;;;;;;;;;;;;25.93;32.03;102010.50;5035622;28;97337;-89
2021/06/14 07:26:29;;;;;;;;;;;;;;;26.39;31.44;102004.91;5037606;28;96757;-88
2021/06/14 07:28:57;;;;;;;;;;;;;;;26.01;31.63;102008.00;5034253;28;98135;-87
2021/06/14 07:31:25;;;;;;;;;;;;;;;25.26;33.03;102005.81;5029287;28;100233;-89
2021/06/14 07:33:57;;;;;;;;;;;;;;;25.11;33.31;102001.56;5032987;28;96626;-86
2021/06/14 07:36:24;;;;;;;;;;;;;;;25.58;32.44;102008.75;5032175;28;96645;-89
2021/06/14 07:38:55;;;;;;;;;;;;;;;25.97;32.03;102014.66;5037468;27;97244;-90
2021/06/14 07:41:25;;;;;;;;;;;;;;;26.12;31.87;102006.16;5028597;28;96795;-89
2021/06/14 07:44:03;;;;;;;;;;;;;;;26.62;30.66;102008.44;5039378;28;96253;-89
2021/06/14 07:46:41;;;;;;;;;;;;;;;26.53;30.55;102004.63;5038221;28;96522;-88
2021/06/14 07:49:14;;;;;;;;;;;;;;;26.47;31.20;102006.00;5037599;28;96354;-84
2021/06/14 07:51:43;;;;;;;;;;;;;;;26.65;30.76;102002.78;5039044;28;98973;-89
2021/06/14 07:54:14;;;;;;;;;;;;;;;26.22;31.60;102006.28;5039811;28;96042;-84
2021/06/14 07:59:28;;;;;;;;;;;;;;;26.18;32.05;101988.56;5037294;28;97026;-90
2021/06/14 08:04:40;;;;;;;;;;;;;;;26.44;30.67;101995.44;5036031;28;96313;-90
2021/06/14 08:07:08;;;;;;;;;;;;;;;26.58;29.93;101992.41;5036029;28;96997;-89
2021/06/14 08:09:35;;;;;;;;;;;;;;;26.61;29.89;101987.75;5034651;28;98912;-90
2021/06/14 08:12:05;;;;;;;;;;;;;;;26.93;29.65;101981.34;5027833;28;99580;-90
2021/06/14 08:14:34;;;;;;;;;;;;;;;26.67;29.52;101977.25;5037625;28;96819;-88
2021/06/14 08:17:03;;;;;;;;;;;;;;;26.65;29.37;101975.66;5042732;22;96157;-88
2021/06/14 08:19:42;;;;;;;;;;;;;;;26.94;29.27;101976.78;5033434;28;99041;-90
2021/06/14 08:25:16;;;;;;;;;;;;;;;26.42;29.26;101970.31;4979475;28;96388;-90
2021/06/14 08:27:44;;;;;;;;;;;;;;;26.85;28.91;101978.38;4980277;28;96656;-86
2021/06/14 08:30:13;;;;;;;;;;;;;;;26.91;29.21;101977.91;5029591;28;96863;-87
2021/06/14 08:32:40;;;;;;;;;;;;;;;26.63;29.73;101973.06;5026099;28;99351;-87
2021/06/14 08:35:13;;;;;;;;;;;;;;;26.78;29.20;101970.94;5024460;28;96736;-87
2021/06/14 08:37:39;;;;;;;;;;;;;;;26.77;29.22;101969.22;5023659;28;96823;-84
2021/06/14 08:40:07;;;;;;;;;;;;;;;26.69;29.28;101963.56;5013318;28;99036;-83
2021/06/14 08:42:34;;;;;;;;;;;;;;;27.03;28.69;101951.59;5014217;28;100567;-83
2021/06/14 08:45:01;;;;;;;;;;;;;;;27.14;28.72;101958.81;5013517;28;96901;-86
2021/06/14 08:50:32;;;;;;;;;;;;;;;27.20;28.60;101955.56;5037903;28;99496;-89
2021/06/14 08:53:11;;;;;;;;;;;;;;;25.85;31.17;101945.25;5029089;28;98835;-91
2021/06/14 08:55:40;;;;;;;;;;;;;;;26.90;29.87;101943.66;5013426;28;96786;-91
2021/06/14 08:58:12;;;;;;;;;;;;;;;27.00;29.32;101937.44;5029312;28;96840;-90
2021/06/14 09:01:26;;;;;;;;;;;;;;;27.23;28.46;101945.31;5039800;28;97337;-89
2021/06/14 09:04:02;;;;;;;;;;;;;;;27.26;28.28;101953.19;5037888;28;98802;-89
2021/06/14 09:09:10;;;;;;;;;;;;;;;27.13;28.52;101936.25;5028213;28;97416;-86
2021/06/14 09:11:39;;;;;;;;;;;;;;;27.53;28.02;101935.50;5016805;28;97807;-90
2021/06/14 09:14:14;;;;;;;;;;;;;;;27.57;27.86;101926.94;5018791;28;98363;-90
2021/06/14 09:19:27;;;;;;;;;;;;;;;27.11;28.59;101921.94;5026247;28;97591;-89
2021/06/14 09:21:57;;;;;;;;;;;;;;;27.31;28.18;101918.34;5032574;28;96552;-90
2021/06/14 09:24:27;;;;;;;;;;;;;;;27.52;27.48;101920.22;5036126;28;97013;-90
2021/06/14 09:26:55;;;;;;;;;;;;;;;27.58;27.63;101911.50;5039007;28;96708;-90
2021/06/14 09:29:25;;;;;;;;;;;;;;;27.18;28.46;101908.69;5021275;28;96650;-91
2021/06/14 09:31:58;;;;;;;;;;;;;;;27.24;28.24;101908.19;5039498;28;98257;-91
2021/06/14 09:34:32;;;;;;;;;;;;;;;27.13;28.43;101898.25;5038328;28;97792;-91
2021/06/14 09:39:46;;;;;;;;;;;;;;;27.40;27.50;101896.84;5035930;28;96751;-90
2021/06/14 09:44:52;;;;;;;;;;;;;;;25.98;29.29;101881.84;5119678;22;99865;-90
2021/06/14 09:47:19;;;;;;;;;;;;;;;25.98;29.95;101883.69;5013662;28;96130;-89
2021/06/14 09:52:52;;;;;;;;;;;;;;;26.93;28.41;101882.84;5021080;28;100110;-85
2021/06/14 09:55:18;;;;;;;;;;;;;;;26.54;28.55;101876.25;5012494;28;98722;-89
2021/06/14 09:57:46;;;;;;;;;;;;;;;26.15;29.53;101873.19;5019209;28;96002;-89
2021/06/14 10:02:59;;;;;;;;;;;;;;;26.46;28.76;101862.50;5012754;28;98698;-89
2021/06/14 10:05:28;;;;;;;;;;;;;;;26.58;28.85;101861.47;5129933;22;100106;-90
2021/06/14 10:13:41;;;;;;;;;;;;;;;25.89;29.64;101849.25;5007831;22;98458;-89
2021/06/14 10:16:08;;;;;;;;;;;;;;;26.58;28.90;101850.63;4999252;28;96904;-89
2021/06/14 10:18:38;;;;;;;;;;;;;;;26.91;28.40;101847.72;4999885;28;96133;-89
2021/06/14 10:26:54;;;;;;;;;;;;;;;27.29;28.00;101836.25;4974491;28;100124;-89
2021/06/14 10:29:21;;;;;;;;;;;;;;;26.97;27.81;101835.50;4992912;28;96605;-87
2021/06/14 10:31:50;;;;;;;;;;;;;;;26.83;28.09;101835.81;5013125;28;96549;-87
2021/06/14 10:34:17;;;;;;;;;;;;;;;27.07;27.59;101819.25;4981517;28;97018;-87
2021/06/14 10:36:45;;;;;;;;;;;;;;;27.31;27.65;101823.38;4991122;28;99817;-85
2021/06/14 10:39:24;;;;;;;;;;;;;;;27.28;27.52;101823.66;4980853;28;96949;-86
2021/06/14 10:47:09;;;;;;;;;;;;;;;27.57;26.55;101803.94;5928503;22;100655;-89
2021/06/14 10:49:36;;;;;;;;;;;;;;;27.48;26.75;101812.88;5031172;28;96227;-91
2021/06/14 10:54:57;;;;;;;;;;;;;;;27.59;26.67;101808.22;5023159;28;98412;-88
2021/06/14 10:57:31;;;;;;;;;;;;;;;27.63;26.36;101801.53;5028073;27;99160;-85
2021/06/14 10:59:58;;;;;;;;;;;;;;;27.06;26.38;101791.28;5031953;27;96546;-89
2021/06/14 11:02:25;;;;;;;;;;;;;;;27.24;26.88;101784.22;5026626;28;96773;-84
2021/06/14 11:05:08;;;;;;;;;;;;;;;27.06;27.01;101788.56;5035266;28;99537;-86
2021/06/14 11:07:42;;;;;;;;;;;;;;;27.33;26.85;101785.25;5034539;28;96566;-88
2021/06/14 11:10:32;;;;;;;;;;;;;;;27.13;27.05;101776.19;5022094;28;96919;-89
2021/06/14 11:13:13;;;;;;;;;;;;;;;27.28;27.00;101769.38;5038604;27;96063;-88
2021/06/14 11:15:47;;;;;;;;;;;;;;;27.65;26.55;101760.63;5025196;28;98973;-88
2021/06/14 11:18:23;;;;;;;;;;;;;;;27.06;26.77;101761.44;5019364;28;97031;-88
2021/06/14 11:23:33;;;;;;;;;;;;;;;27.60;26.48;101762.94;5032706;27;96766;-88
2021/06/14 11:26:01;;;;;;;;;;;;;;;27.65;26.37;101761.50;5030379;28;97847;-86
2021/06/14 11:28:43;;;;;;;;;;;;;;;27.56;26.09;101753.34;5015837;28;99156;-88
2021/06/14 11:31:18;;;;;;;;;;;;;;;27.69;25.93;101753.94;5033357;28;96166;-88
2021/06/14 11:33:52;;;;;;;;;;;;;;;27.66;25.93;101746.94;5037951;27;95988;-86
2021/06/14 11:36:22;;;;;;;;;;;;;;;27.30;26.86;101740.28;5023774;28;96561;-88
2021/06/14 11:38:57;;;;;;;;;;;;;;;27.72;26.46;101742.78;5022211;28;99196;-89
2021/06/14 11:51:46;;;;;;;;;;;;;;;28.23;25.99;101722.66;5037608;28;96011;-88
2021/06/14 11:54:24;;;;;;;;;;;;;;;28.16;26.27;101724.25;5040716;28;96741;-89
2021/06/14 12:02:24;;;;;;;;;;;;;;;28.70;25.73;101705.38;5032809;28;96534;-86
2021/06/14 12:05:11;;;;;;;;;;;;;;;28.58;25.27;101701.13;5039801;28;96830;-88
2021/06/14 12:07:49;;;;;;;;;;;;;;;28.30;25.75;101692.03;5040352;28;97655;-88
2021/06/14 12:13:07;;;;;;;;;;;;;;;28.66;25.62;101695.81;5032070;28;96707;-89
2021/06/14 12:15:37;;;;;;;;;;;;;;;28.66;25.55;101689.50;5039515;28;96824;-89
2021/06/14 12:21:11;;;;;;;;;;;;;;;28.77;25.13;101682.03;5038700;28;96603;-88
2021/06/14 12:23:57;;;;;;;;;;;;;;;28.70;24.76;101683.59;5031889;28;97321;-86
2021/06/14 12:26:43;;;;;;;;;;;;;;;28.69;24.87;101675.59;5038766;28;96325;-89
2021/06/14 12:29:19;;;;;;;;;;;;;;;28.70;25.01;101661.84;5035430;28;97995;-87
2021/06/14 12:31:46;;;;;;;;;;;;;;;28.88;24.83;101657.34;5040119;27;99162;-87
2021/06/14 12:34:26;;;;;;;;;;;;;;;29.01;24.96;101657.03;5034825;28;96632;-90
2021/06/14 12:39:39;;;;;;;;;;;;;;;29.06;24.28;101660.13;5026939;27;96637;-86
2021/06/14 12:42:16;;;;;;;;;;;;;;;28.40;24.69;101654.81;5031481;27;99777;-84
2021/06/14 12:50:28;;;;;;;;;;;;;;;29.35;24.28;101651.81;5041768;27;96069;-85
2021/06/14 12:52:55;;;;;;;;;;;;;;;29.42;23.90;101650.16;5041846;27;99857;-86
2021/06/14 12:55:27;;;;;;;;;;;;;;;29.69;23.72;101652.81;5038304;27;98619;-85
2021/06/14 12:57:56;;;;;;;;;;;;;;;28.86;24.53;101650.38;5026747;28;97104;-88
2021/06/14 13:00:31;;;;;;;;;;;;;;;28.80;24.81;101642.81;5035479;28;96895;-89
2021/06/14 13:03:04;;;;;;;;;;;;;;;28.85;24.76;101644.06;5034098;28;100030;-88
2021/06/14 13:05:45;;;;;;;;;;;;;;;28.38;25.42;101636.94;5050489;28;97496;-87
2021/06/14 13:08:16;;;;;;;;;;;;;;;29.06;24.82;101630.22;5032139;28;96456;-87
2021/06/14 13:10:44;;;;;;;;;;;;;;;29.77;24.17;101626.66;5034919;28;95910;-89
2021/06/14 13:13:15;;;;;;;;;;;;;;;30.03;23.39;101635.75;5029980;27;96898;-87
2021/06/14 13:15:42;;;;;;;;;;;;;;;30.56;22.79;101632.03;5038333;28;96714;-87
2021/06/14 13:21:05;;;;;;;;;;;;;;;31.06;22.02;101627.47;5039608;27;96254;-86
2021/06/14 13:23:31;;;;;;;;;;;;;;;31.85;22.16;101624.19;5032420;27;98796;-82
2021/06/14 13:31:24;;;;;;;;;;;;;;;33.03;19.95;101623.34;5035904;28;96080;-84
2021/06/14 13:34:06;;;;;;;;;;;;;;;33.31;19.08;101626.47;5036680;27;98895;-87
2021/06/14 13:36:35;;;;;;;;;;;;;;;34.45;18.71;101620.00;5026513;28;99467;-87
2021/06/14 13:39:03;;;;;;;;;;;;;;;35.39;18.34;101621.84;5028189;28;96675;-87
2021/06/14 13:41:33;;;;;;;;;;;;;;;34.92;17.70;101619.63;5048805;28;96610;-86
2021/06/14 13:49:55;;;;;;;;;;;;;;;35.09;17.46;101602.72;5034179;27;96577;-86
2021/06/14 13:52:23;;;;;;;;;;;;;;;34.25;18.55;101609.59;5099166;22;99749;-88
2021/06/14 13:55:01;;;;;;;;;;;;;;;35.68;17.12;101602.47;4945580;28;98880;-87
2021/06/14 13:57:30;;;;;;;;;;;;;;;36.89;16.03;101591.03;4947806;28;96375;-88
2021/06/14 14:00:13;;;;;;;;;;;;;;;37.34;15.72;101588.63;4936773;28;96603;-88
2021/06/14 14:02:48;;;;;;;;;;;;;;;38.40;14.85;101593.03;4934911;28;96762;-88
2021/06/14 14:08:15;;;;;;;;;;;;;;;39.32;13.83;101594.59;4936139;28;99555;-89
2021/06/14 14:10:42;;;;;;;;;;;;;;;39.71;13.19;101594.31;4940618;28;97636;-88
2021/06/14 14:13:10;;;;;;;;;;;;;;;39.82;13.49;101596.38;4942588;28;96839;-88
2021/06/14 14:15:39;;;;;;;;;;;;;;;41.62;12.01;101593.91;4939344;28;99343;-85
2021/06/14 14:18:06;;;;;;;;;;;;;;;43.74;10.96;101597.63;5088910;22;99848;-84
2021/06/14 14:20:50;;;;;;;;;;;;;;;45.66;9.60;101598.44;4963852;28;96299;-85
2021/06/14 14:23:28;;;;;;;;;;;;;;;47.83;7.98;101590.06;4960966;28;96671;-86
2021/06/14 14:34:02;;;;;;;;;;;;;;;49.03;7.19;101573.09;4993136;28;97342;-87
2021/06/14 14:39:17;;;;;;;;;;;;;;;49.56;6.56;101574.13;4997346;28;96588;-88
2021/06/14 14:44:28;;;;;;;;;;;;;;;50.60;6.02;101580.84;4992554;28;96826;-85
2021/06/14 14:52:20;;;;;;;;;;;;;;;52.39;5.55;101565.38;4999395;28;96696;-87
2021/06/14 14:55:02;;;;;;;;;;;;;;;52.40;5.15;101556.59;4986822;28;97849;-85
2021/06/14 15:09:28;;;;;;;;;;;;;;;48.31;7.52;101538.97;5025621;28;96350;-90
2021/06/14 15:17:18;;;;;;;;;;;;;;;41.29;12.07;101517.63;5026207;28;96398;-89
2021/06/14 15:19:47;;;;;;;;;;;;;;;39.08;14.26;101510.56;5027074;28;99506;-83
2021/06/14 15:22:23;;;;;;;;;;;;;;;36.79;16.44;101505.22;5035971;28;98757;-84
2021/06/14 15:27:39;;;;;;;;;;;;;;;35.73;17.64;101505.69;5037135;27;96520;-88
2021/06/14 15:32:57;;;;;;;;;;;;;;;34.79;18.74;101491.25;5036602;28;99706;-88
2021/06/14 15:35:55;;;;;;;;;;;;;;;34.32;19.02;101486.25;5033883;28;96642;-88
2021/06/14 15:38:25;;;;;;;;;;;;;;;33.85;19.30;101492.09;5028478;28;96610;-87
2021/06/14 15:40:52;;;;;;;;;;;;;;;33.42;20.09;101490.97;5018097;28;98465;-88
2021/06/14 15:43:23;;;;;;;;;;;;;;;33.61;20.48;101483.06;5031056;28;96739;-87
2021/06/14 15:45:51;;;;;;;;;;;;;;;33.33;20.05;101482.00;5036152;28;96522;-88
2021/06/14 15:48:25;;;;;;;;;;;;;;;33.25;20.14;101473.84;5041021;27;96556;-87
2021/06/14 15:53:30;;;;;;;;;;;;;;;32.74;20.84;101475.41;5142630;22;100208;-88
2021/06/14 15:55:59;;;;;;;;;;;;;;;33.03;20.64;101486.47;5038721;27;96777;-86
2021/06/14 15:58:32;;;;;;;;;;;;;;;32.66;20.76;101479.00;5051349;28;96664;-86
2021/06/14 16:03:30;;;;;;;;;;;;;;;33.03;20.74;101472.78;4968355;28;98777;-87
2021/06/14 16:05:57;;;;;;;;;;;;;;;32.95;20.69;101461.06;4971482;28;96730;-88
2021/06/14 16:08:24;;;;;;;;;;;;;;;32.90;21.08;101463.47;4971612;28;97305;-88
2021/06/14 16:13:33;;;;;;;;;;;;;;;32.71;21.10;101462.94;4977874;28;99168;-87
2021/06/14 16:15:59;;;;;;;;;;;;;;;32.75;21.25;101457.97;4981248;28;97840;-85
2021/06/14 16:18:26;;;;;;;;;;;;;;;32.42;21.69;101449.09;4981342;28;96262;-85
2021/06/14 16:20:57;;;;;;;;;;;;;;;32.59;21.46;101444.34;4978991;28;97095;-88
2021/06/14 16:26:06;;;;;;;;;;;;;;;31.95;21.95;101458.16;4972109;28;96049;-84
2021/06/14 16:28:34;;;;;;;;;;;;;;;32.00;21.94;101450.25;4980185;28;96842;-86
2021/06/14 16:31:01;;;;;;;;;;;;;;;32.17;22.50;101444.75;4978230;28;98414;-85
2021/06/14 16:33:28;;;;;;;;;;;;;;;31.91;22.55;101445.00;4979220;28;99028;-87
2021/06/14 16:35:55;;;;;;;;;;;;;;;31.95;22.61;101439.00;4971057;28;96334;-84
2021/06/14 16:38:22;;;;;;;;;;;;;;;32.16;22.35;101443.91;4979931;28;96251;-85
2021/06/14 16:40:56;;;;;;;;;;;;;;;31.85;22.37;101440.22;4977302;28;96435;-85
2021/06/14 16:43:33;;;;;;;;;;;;;;;31.88;22.63;101439.91;4979498;28;97675;-85
2021/06/14 16:46:00;;;;;;;;;;;;;;;32.00;22.71;101433.88;4979342;28;96299;-86
2021/06/14 16:48:27;;;;;;;;;;;;;;;31.98;22.17;101432.31;4983123;28;96623;-83
2021/06/14 16:51:06;;;;;;;;;;;;;;;32.14;22.14;101434.19;4978811;28;99042;-82
2021/06/14 16:53:33;;;;;;;;;;;;;;;31.98;22.33;101422.25;4972550;28;100229;-86
2021/06/14 16:56:02;;;;;;;;;;;;;;;31.78;22.88;101418.22;4978352;28;96586;-85
2021/06/14 16:58:30;;;;;;;;;;;;;;;31.82;22.74;101408.66;4976674;28;96074;-86
2021/06/14 17:01:03;;;;;;;;;;;;;;;31.60;23.21;101409.41;4973171;28;97122;-83
2021/06/14 17:03:29;;;;;;;;;;;;;;;31.60;23.51;101406.69;4978623;28;98533;-85
2021/06/14 17:05:56;;;;;;;;;;;;;;;31.20;23.49;101402.97;4976570;28;96064;-85
2021/06/14 17:17:26;;;;;;;;;;;;;;;31.94;22.98;101407.25;5001517;28;96819;-87
2021/06/14 17:19:54;;;;;;;;;;;;;;;31.82;23.47;101403.19;4998351;28;96961;-87
2021/06/14 17:22:23;;;;;;;;;;;;;;;31.69;24.00;101394.72;4987724;28;97858;-87
2021/06/14 17:30:32;;;;;;;;;;;;;;;31.68;23.67;101390.28;4986538;28;98643;-85
2021/06/14 17:32:59;;;;;;;;;;;;;;;31.44;24.08;101382.13;4985918;28;97513;-85
2021/06/14 17:35:29;;;;;;;;;;;;;;;31.31;23.99;101371.72;4987080;28;99513;-85
2021/06/14 17:41:14;;;;;;;;;;;;;;;31.28;24.44;101372.94;5079278;22;99288;-86
2021/06/14 17:43:41;;;;;;;;;;;;;;;31.26;24.39;101372.25;5017411;28;100329;-86
2021/06/14 17:46:08;;;;;;;;;;;;;;;31.23;24.78;101371.75;5018155;28;100250;-86
2021/06/14 17:48:36;;;;;;;;;;;;;;;31.34;24.08;101368.66;5004177;28;96773;-87
2021/06/14 17:51:07;;;;;;;;;;;;;;;31.13;24.49;101380.13;5009435;28;97878;-86
2021/06/14 17:53:34;;;;;;;;;;;;;;;31.48;24.43;101373.41;5007690;28;100319;-85
2021/06/14 17:56:13;;;;;;;;;;;;;;;31.22;24.21;101373.63;5011725;28;100321;-86
2021/06/14 17:58:41;;;;;;;;;;;;;;;31.31;24.28;101376.34;5013827;28;96745;-85
2021/06/14 18:01:07;;;;;;;;;;;;;;;31.16;24.51;101373.47;5014990;28;96846;-84
2021/06/14 18:03:35;;;;;;;;;;;;;;;31.10;25.01;101377.75;5011810;28;102108;-85
2021/06/14 18:06:07;;;;;;;;;;;;;;;31.10;24.45;101375.03;5010734;28;99988;-84
2021/06/14 18:08:39;;;;;;;;;;;;;;;30.98;24.99;101375.50;5006395;28;96465;-86
2021/06/14 18:11:10;;;;;;;;;;;;;;;31.00;25.00;101370.72;5011668;28;96612;-85
2021/06/14 18:13:36;;;;;;;;;;;;;;;30.79;25.01;101368.50;5010587;28;99231;-85